sensor_id;sensor_type;location;lat;lon;timestamp;temperature;humidity
75126;DHT22;63699;45.442;11.510;2022-10-20T00:00:26;20.20;82.70
75126;DHT22;63699;45.442;11.510;2022-10-20T00:02:52;20.20;82.70
75126;DHT22;63699;45.442;11.510;2022-10-20T00:05:17;20.30;82.70
75126;DHT22;63699;45.442;11.510;2022-10-20T00:07:43;20.30;82.70
75126;DHT22;63699;45.442;11.510;2022-10-20T00:10:09;20.30;82.60
75126;DHT22;63699;45.442;11.510;2022-10-20T00:12:34;20.30;82.60
75126;DHT22;63699;45.442;11.510;2022-10-20T00:15:00;20.30;82.70
75126;DHT22;63699;45.442;11.510;2022-10-20T00:17:25;20.30;82.70
75126;DHT22;63699;45.442;11.510;2022-10-20T00:19:51;20.30;82.80
75126;DHT22;63699;45.442;11.510;2022-10-20T00:22:17;20.30;82.80
75126;DHT22;63699;45.442;11.510;2022-10-20T00:24:42;20.30;82.80
75126;DHT22;63699;45.442;11.510;2022-10-20T00:27:08;20.30;82.80
75126;DHT22;63699;45.442;11.510;2022-10-20T00:29:33;20.20;82.80
75126;DHT22;63699;45.442;11.510;2022-10-20T00:31:59;20.30;82.90
75126;DHT22;63699;45.442;11.510;2022-10-20T00:34:25;20.30;82.80
75126;DHT22;63699;45.442;11.510;2022-10-20T00:36:50;20.30;82.80
75126;DHT22;63699;45.442;11.510;2022-10-20T00:39:16;20.30;82.80
75126;DHT22;63699;45.442;11.510;2022-10-20T00:41:41;20.30;82.80
75126;DHT22;63699;45.442;11.510;2022-10-20T00:47:13;20.30;82.80
75126;DHT22;63699;45.442;11.510;2022-10-20T00:49:39;20.30;82.80
75126;DHT22;63699;45.442;11.510;2022-10-20T00:52:06;20.30;82.90
75126;DHT22;63699;45.442;11.510;2022-10-20T00:54:32;20.30;82.90
75126;DHT22;63699;45.442;11.510;2022-10-20T00:56:58;20.30;82.90
75126;DHT22;63699;45.442;11.510;2022-10-20T00:59:29;20.30;83.00
75126;DHT22;63699;45.442;11.510;2022-10-20T01:01:57;20.30;83.00
75126;DHT22;63699;45.442;11.510;2022-10-20T01:04:25;20.30;83.10
75126;DHT22;63699;45.442;11.510;2022-10-20T01:06:51;20.20;83.00
75126;DHT22;63699;45.442;11.510;2022-10-20T01:09:17;20.20;83.00
75126;DHT22;63699;45.442;11.510;2022-10-20T01:17:39;20.20;83.00
75126;DHT22;63699;45.442;11.510;2022-10-20T01:28:38;20.20;82.90
75126;DHT22;63699;45.442;11.510;2022-10-20T01:34:07;20.30;83.00
75126;DHT22;63699;45.442;11.510;2022-10-20T01:36:38;20.30;83.00
75126;DHT22;63699;45.442;11.510;2022-10-20T01:42:03;20.30;83.10
75126;DHT22;63699;45.442;11.510;2022-10-20T01:44:31;20.30;83.20
75126;DHT22;63699;45.442;11.510;2022-10-20T01:46:58;20.30;83.10
75126;DHT22;63699;45.442;11.510;2022-10-20T01:49:24;20.30;83.10
75126;DHT22;63699;45.442;11.510;2022-10-20T01:51:50;20.30;83.20
75126;DHT22;63699;45.442;11.510;2022-10-20T01:54:27;20.30;83.20
75126;DHT22;63699;45.442;11.510;2022-10-20T01:57:05;20.30;83.20
75126;DHT22;63699;45.442;11.510;2022-10-20T01:59:53;20.30;83.20
75126;DHT22;63699;45.442;11.510;2022-10-20T02:02:51;20.30;83.20
75126;DHT22;63699;45.442;11.510;2022-10-20T02:08:08;20.30;83.80
75126;DHT22;63699;45.442;11.510;2022-10-20T02:10:47;20.30;83.20
75126;DHT22;63699;45.442;11.510;2022-10-20T02:13:14;20.30;83.20
75126;DHT22;63699;45.442;11.510;2022-10-20T02:15:45;20.30;83.30
75126;DHT22;63699;45.442;11.510;2022-10-20T02:18:14;20.30;83.30
75126;DHT22;63699;45.442;11.510;2022-10-20T02:20:42;20.30;83.40
75126;DHT22;63699;45.442;11.510;2022-10-20T02:23:09;20.30;83.40
75126;DHT22;63699;45.442;11.510;2022-10-20T02:25:37;20.30;83.40
75126;DHT22;63699;45.442;11.510;2022-10-20T02:28:04;20.30;83.30
75126;DHT22;63699;45.442;11.510;2022-10-20T02:30:30;20.30;83.50
75126;DHT22;63699;45.442;11.510;2022-10-20T02:32:56;20.30;83.40
75126;DHT22;63699;45.442;11.510;2022-10-20T02:35:28;20.30;83.40
75126;DHT22;63699;45.442;11.510;2022-10-20T02:37:53;20.30;83.40
75126;DHT22;63699;45.442;11.510;2022-10-20T02:40:19;20.30;83.50
75126;DHT22;63699;45.442;11.510;2022-10-20T02:42:46;20.20;83.40
75126;DHT22;63699;45.442;11.510;2022-10-20T02:45:12;20.30;83.60
75126;DHT22;63699;45.442;11.510;2022-10-20T02:47:38;20.30;83.70
75126;DHT22;63699;45.442;11.510;2022-10-20T02:50:05;20.30;83.70
75126;DHT22;63699;45.442;11.510;2022-10-20T02:52:30;20.30;83.70
75126;DHT22;63699;45.442;11.510;2022-10-20T02:54:56;20.30;83.70
75126;DHT22;63699;45.442;11.510;2022-10-20T02:57:21;20.20;83.70
75126;DHT22;63699;45.442;11.510;2022-10-20T02:59:47;20.20;83.70
75126;DHT22;63699;45.442;11.510;2022-10-20T03:02:12;20.20;83.70
75126;DHT22;63699;45.442;11.510;2022-10-20T03:04:38;20.20;83.80
75126;DHT22;63699;45.442;11.510;2022-10-20T03:07:04;20.20;83.80
75126;DHT22;63699;45.442;11.510;2022-10-20T03:09:29;20.20;83.70
75126;DHT22;63699;45.442;11.510;2022-10-20T03:11:55;20.20;83.80
75126;DHT22;63699;45.442;11.510;2022-10-20T03:14:20;20.20;84.40
75126;DHT22;63699;45.442;11.510;2022-10-20T03:16:46;20.20;83.70
75126;DHT22;63699;45.442;11.510;2022-10-20T03:19:11;20.20;83.70
75126;DHT22;63699;45.442;11.510;2022-10-20T03:21:37;20.20;83.70
75126;DHT22;63699;45.442;11.510;2022-10-20T03:24:03;20.30;83.70
75126;DHT22;63699;45.442;11.510;2022-10-20T03:26:28;20.30;83.80
75126;DHT22;63699;45.442;11.510;2022-10-20T03:28:54;20.30;83.80
75126;DHT22;63699;45.442;11.510;2022-10-20T03:31:20;20.20;83.70
75126;DHT22;63699;45.442;11.510;2022-10-20T03:33:45;20.20;83.70
75126;DHT22;63699;45.442;11.510;2022-10-20T03:36:11;20.30;83.80
75126;DHT22;63699;45.442;11.510;2022-10-20T03:38:36;20.20;83.70
75126;DHT22;63699;45.442;11.510;2022-10-20T03:41:04;20.20;83.80
75126;DHT22;63699;45.442;11.510;2022-10-20T03:43:30;20.20;83.80
75126;DHT22;63699;45.442;11.510;2022-10-20T03:46:04;20.30;83.80
75126;DHT22;63699;45.442;11.510;2022-10-20T03:48:30;20.30;83.90
75126;DHT22;63699;45.442;11.510;2022-10-20T03:50:56;20.30;83.90
75126;DHT22;63699;45.442;11.510;2022-10-20T03:53:21;20.20;83.80
75126;DHT22;63699;45.442;11.510;2022-10-20T03:55:47;20.30;83.80
75126;DHT22;63699;45.442;11.510;2022-10-20T03:58:15;20.20;83.80
75126;DHT22;63699;45.442;11.510;2022-10-20T04:01:12;20.30;83.80
75126;DHT22;63699;45.442;11.510;2022-10-20T04:03:38;20.30;83.80
75126;DHT22;63699;45.442;11.510;2022-10-20T04:06:04;20.30;83.80
75126;DHT22;63699;45.442;11.510;2022-10-20T04:08:30;20.30;83.80
75126;DHT22;63699;45.442;11.510;2022-10-20T04:10:56;20.30;83.90
75126;DHT22;63699;45.442;11.510;2022-10-20T04:13:22;20.30;83.90
75126;DHT22;63699;45.442;11.510;2022-10-20T04:15:48;20.30;83.90
75126;DHT22;63699;45.442;11.510;2022-10-20T04:18:13;20.30;83.90
75126;DHT22;63699;45.442;11.510;2022-10-20T04:20:39;20.30;83.90
75126;DHT22;63699;45.442;11.510;2022-10-20T04:23:05;20.30;83.90
75126;DHT22;63699;45.442;11.510;2022-10-20T04:25:30;20.30;83.90
75126;DHT22;63699;45.442;11.510;2022-10-20T04:27:58;20.20;83.80
75126;DHT22;63699;45.442;11.510;2022-10-20T04:30:23;20.30;83.90
75126;DHT22;63699;45.442;11.510;2022-10-20T04:32:49;20.30;84.00
75126;DHT22;63699;45.442;11.510;2022-10-20T04:35:14;20.30;84.10
75126;DHT22;63699;45.442;11.510;2022-10-20T04:37:40;20.20;84.00
75126;DHT22;63699;45.442;11.510;2022-10-20T04:40:06;20.30;84.10
75126;DHT22;63699;45.442;11.510;2022-10-20T04:42:31;20.20;83.90
75126;DHT22;63699;45.442;11.510;2022-10-20T04:44:57;20.20;83.90
75126;DHT22;63699;45.442;11.510;2022-10-20T04:47:22;20.30;84.00
75126;DHT22;63699;45.442;11.510;2022-10-20T04:49:48;20.30;83.90
75126;DHT22;63699;45.442;11.510;2022-10-20T04:52:14;20.30;84.00
75126;DHT22;63699;45.442;11.510;2022-10-20T04:54:39;20.20;83.90
75126;DHT22;63699;45.442;11.510;2022-10-20T04:57:05;20.20;84.00
75126;DHT22;63699;45.442;11.510;2022-10-20T04:59:31;20.30;84.10
75126;DHT22;63699;45.442;11.510;2022-10-20T05:01:56;20.30;84.10
75126;DHT22;63699;45.442;11.510;2022-10-20T05:04:22;20.20;84.10
75126;DHT22;63699;45.442;11.510;2022-10-20T05:06:48;20.20;84.00
75126;DHT22;63699;45.442;11.510;2022-10-20T05:09:14;20.20;84.20
75126;DHT22;63699;45.442;11.510;2022-10-20T05:11:40;20.20;84.10
75126;DHT22;63699;45.442;11.510;2022-10-20T05:14:06;20.20;84.10
75126;DHT22;63699;45.442;11.510;2022-10-20T05:16:32;20.20;84.20
75126;DHT22;63699;45.442;11.510;2022-10-20T05:18:58;20.20;84.10
75126;DHT22;63699;45.442;11.510;2022-10-20T05:21:26;20.20;84.20
75126;DHT22;63699;45.442;11.510;2022-10-20T05:24:00;20.20;84.10
75126;DHT22;63699;45.442;11.510;2022-10-20T05:26:27;20.20;84.20
75126;DHT22;63699;45.442;11.510;2022-10-20T05:28:53;20.20;84.20
75126;DHT22;63699;45.442;11.510;2022-10-20T05:31:21;20.20;84.10
75126;DHT22;63699;45.442;11.510;2022-10-20T05:33:52;20.20;84.10
75126;DHT22;63699;45.442;11.510;2022-10-20T05:36:21;20.20;84.20
75126;DHT22;63699;45.442;11.510;2022-10-20T05:38:47;20.20;84.20
75126;DHT22;63699;45.442;11.510;2022-10-20T05:41:15;20.20;84.20
75126;DHT22;63699;45.442;11.510;2022-10-20T05:43:42;20.20;84.20
75126;DHT22;63699;45.442;11.510;2022-10-20T05:46:11;20.20;84.20
75126;DHT22;63699;45.442;11.510;2022-10-20T05:48:36;20.20;84.20
75126;DHT22;63699;45.442;11.510;2022-10-20T05:51:10;20.20;84.20
75126;DHT22;63699;45.442;11.510;2022-10-20T05:53:36;20.20;84.20
75126;DHT22;63699;45.442;11.510;2022-10-20T05:56:07;20.20;84.10
75126;DHT22;63699;45.442;11.510;2022-10-20T05:58:33;20.20;84.10
75126;DHT22;63699;45.442;11.510;2022-10-20T06:01:16;20.20;84.10
75126;DHT22;63699;45.442;11.510;2022-10-20T06:03:50;20.20;84.70
75126;DHT22;63699;45.442;11.510;2022-10-20T06:06:17;20.20;84.10
75126;DHT22;63699;45.442;11.510;2022-10-20T06:08:43;20.20;84.10
75126;DHT22;63699;45.442;11.510;2022-10-20T06:11:10;20.20;84.10
75126;DHT22;63699;45.442;11.510;2022-10-20T06:13:36;20.20;84.10
75126;DHT22;63699;45.442;11.510;2022-10-20T06:18:32;20.20;84.10
75126;DHT22;63699;45.442;11.510;2022-10-20T06:21:04;20.20;84.00
75126;DHT22;63699;45.442;11.510;2022-10-20T06:23:30;20.20;84.10
75126;DHT22;63699;45.442;11.510;2022-10-20T06:26:10;20.30;84.50
75126;DHT22;63699;45.442;11.510;2022-10-20T06:28:37;20.40;85.10
75126;DHT22;63699;45.442;11.510;2022-10-20T06:31:18;20.40;85.60
75126;DHT22;63699;45.442;11.510;2022-10-20T06:33:43;20.50;87.30
75126;DHT22;63699;45.442;11.510;2022-10-20T06:36:10;20.50;85.60
75126;DHT22;63699;45.442;11.510;2022-10-20T06:38:36;20.50;86.10
75126;DHT22;63699;45.442;11.510;2022-10-20T06:41:08;20.60;85.90
75126;DHT22;63699;45.442;11.510;2022-10-20T06:43:34;20.60;86.00
75126;DHT22;63699;45.442;11.510;2022-10-20T06:46:02;20.60;86.90
75126;DHT22;63699;45.442;11.510;2022-10-20T06:48:28;20.60;86.90
75126;DHT22;63699;45.442;11.510;2022-10-20T06:51:05;20.50;87.00
75126;DHT22;63699;45.442;11.510;2022-10-20T06:53:34;20.60;86.60
75126;DHT22;63699;45.442;11.510;2022-10-20T06:56:05;20.50;86.30
75126;DHT22;63699;45.442;11.510;2022-10-20T06:58:33;20.50;86.60
75126;DHT22;63699;45.442;11.510;2022-10-20T07:01:06;20.50;86.40
75126;DHT22;63699;45.442;11.510;2022-10-20T07:03:33;20.50;86.70
75126;DHT22;63699;45.442;11.510;2022-10-20T07:05:59;20.50;86.30
75126;DHT22;63699;45.442;11.510;2022-10-20T07:08:30;20.50;86.60
75126;DHT22;63699;45.442;11.510;2022-10-20T07:13:30;20.50;86.80
75126;DHT22;63699;45.442;11.510;2022-10-20T07:15:56;20.50;86.90
75126;DHT22;63699;45.442;11.510;2022-10-20T07:18:23;20.50;86.90
75126;DHT22;63699;45.442;11.510;2022-10-20T07:20:49;20.50;86.90
75126;DHT22;63699;45.442;11.510;2022-10-20T07:23:15;20.50;86.70
75126;DHT22;63699;45.442;11.510;2022-10-20T07:25:41;20.50;86.70
75126;DHT22;63699;45.442;11.510;2022-10-20T07:28:07;20.50;86.60
75126;DHT22;63699;45.442;11.510;2022-10-20T07:30:40;20.50;86.60
75126;DHT22;63699;45.442;11.510;2022-10-20T07:33:06;20.50;87.20
75126;DHT22;63699;45.442;11.510;2022-10-20T07:35:33;20.50;86.60
75126;DHT22;63699;45.442;11.510;2022-10-20T07:37:59;20.50;86.70
75126;DHT22;63699;45.442;11.510;2022-10-20T07:40:24;20.50;86.60
75126;DHT22;63699;45.442;11.510;2022-10-20T07:42:50;20.50;86.40
75126;DHT22;63699;45.442;11.510;2022-10-20T07:45:15;20.50;86.60
75126;DHT22;63699;45.442;11.510;2022-10-20T07:47:41;20.50;86.60
75126;DHT22;63699;45.442;11.510;2022-10-20T07:50:07;20.50;86.30
75126;DHT22;63699;45.442;11.510;2022-10-20T07:52:33;20.60;86.50
75126;DHT22;63699;45.442;11.510;2022-10-20T07:54:59;20.60;86.40
75126;DHT22;63699;45.442;11.510;2022-10-20T07:57:24;20.60;85.90
75126;DHT22;63699;45.442;11.510;2022-10-20T07:59:50;20.60;86.30
75126;DHT22;63699;45.442;11.510;2022-10-20T08:02:15;20.60;86.30
75126;DHT22;63699;45.442;11.510;2022-10-20T08:04:41;20.60;86.10
75126;DHT22;63699;45.442;11.510;2022-10-20T08:07:10;20.60;86.10
75126;DHT22;63699;45.442;11.510;2022-10-20T08:09:35;20.60;85.90
75126;DHT22;63699;45.442;11.510;2022-10-20T08:12:02;20.60;85.70
75126;DHT22;63699;45.442;11.510;2022-10-20T08:14:28;20.60;85.80
75126;DHT22;63699;45.442;11.510;2022-10-20T08:16:58;20.60;85.60
75126;DHT22;63699;45.442;11.510;2022-10-20T08:19:25;20.60;85.60
75126;DHT22;63699;45.442;11.510;2022-10-20T08:21:50;20.60;85.60
75126;DHT22;63699;45.442;11.510;2022-10-20T08:24:16;20.60;85.50
75126;DHT22;63699;45.442;11.510;2022-10-20T08:26:42;20.60;85.40
75126;DHT22;63699;45.442;11.510;2022-10-20T08:29:08;20.60;85.40
75126;DHT22;63699;45.442;11.510;2022-10-20T08:31:33;20.50;85.40
75126;DHT22;63699;45.442;11.510;2022-10-20T08:33:59;20.50;85.30
75126;DHT22;63699;45.442;11.510;2022-10-20T08:36:25;20.60;85.40
75126;DHT22;63699;45.442;11.510;2022-10-20T08:38:52;20.50;85.30
75126;DHT22;63699;45.442;11.510;2022-10-20T08:41:29;20.50;85.20
75126;DHT22;63699;45.442;11.510;2022-10-20T08:43:56;20.50;84.60
75126;DHT22;63699;45.442;11.510;2022-10-20T08:46:29;20.50;84.30
75126;DHT22;63699;45.442;11.510;2022-10-20T08:48:55;20.50;84.90
75126;DHT22;63699;45.442;11.510;2022-10-20T08:51:24;20.50;84.90
75126;DHT22;63699;45.442;11.510;2022-10-20T08:53:54;20.50;84.10
75126;DHT22;63699;45.442;11.510;2022-10-20T08:56:23;20.60;84.80
75126;DHT22;63699;45.442;11.510;2022-10-20T08:58:49;20.50;84.80
75126;DHT22;63699;45.442;11.510;2022-10-20T09:01:27;20.40;84.60
75126;DHT22;63699;45.442;11.510;2022-10-20T09:03:57;20.40;84.70
75126;DHT22;63699;45.442;11.510;2022-10-20T09:06:24;20.50;84.80
75126;DHT22;63699;45.442;11.510;2022-10-20T09:08:50;20.40;84.20
75126;DHT22;63699;45.442;11.510;2022-10-20T09:11:23;20.50;84.20
75126;DHT22;63699;45.442;11.510;2022-10-20T09:13:50;20.50;84.20
75126;DHT22;63699;45.442;11.510;2022-10-20T09:16:29;20.50;85.30
75126;DHT22;63699;45.442;11.510;2022-10-20T09:18:57;20.50;84.20
75126;DHT22;63699;45.442;11.510;2022-10-20T09:21:23;20.50;84.70
75126;DHT22;63699;45.442;11.510;2022-10-20T09:23:52;20.50;84.30
75126;DHT22;63699;45.442;11.510;2022-10-20T09:26:21;20.30;84.10
75126;DHT22;63699;45.442;11.510;2022-10-20T09:28:49;20.50;84.70
75126;DHT22;63699;45.442;11.510;2022-10-20T09:31:44;20.50;84.90
75126;DHT22;63699;45.442;11.510;2022-10-20T09:37:11;20.60;84.70
75126;DHT22;63699;45.442;11.510;2022-10-20T09:42:32;20.60;84.60
75126;DHT22;63699;45.442;11.510;2022-10-20T09:45:26;20.60;84.50
75126;DHT22;63699;45.442;11.510;2022-10-20T09:48:00;20.60;84.50
75126;DHT22;63699;45.442;11.510;2022-10-20T09:50:34;20.60;84.40
75126;DHT22;63699;45.442;11.510;2022-10-20T09:53:04;20.60;84.40
75126;DHT22;63699;45.442;11.510;2022-10-20T09:55:36;20.60;84.40
75126;DHT22;63699;45.442;11.510;2022-10-20T09:58:26;20.60;84.30
75126;DHT22;63699;45.442;11.510;2022-10-20T10:01:04;20.50;84.20
75126;DHT22;63699;45.442;11.510;2022-10-20T10:03:42;20.50;84.20
75126;DHT22;63699;45.442;11.510;2022-10-20T10:09:22;20.50;84.10
75126;DHT22;63699;45.442;11.510;2022-10-20T10:14:28;20.50;83.50
75126;DHT22;63699;45.442;11.510;2022-10-20T10:16:53;20.50;84.00
75126;DHT22;63699;45.442;11.510;2022-10-20T10:19:24;20.50;84.60
75126;DHT22;63699;45.442;11.510;2022-10-20T10:21:55;20.50;83.90
75126;DHT22;63699;45.442;11.510;2022-10-20T10:27:27;20.50;83.80
75126;DHT22;63699;45.442;11.510;2022-10-20T10:30:29;20.50;83.80
75126;DHT22;63699;45.442;11.510;2022-10-20T10:32:56;20.50;83.80
75126;DHT22;63699;45.442;11.510;2022-10-20T10:35:28;20.10;84.80
75126;DHT22;63699;45.442;11.510;2022-10-20T10:37:56;20.50;83.00
75126;DHT22;63699;45.442;11.510;2022-10-20T10:40:34;20.50;83.10
75126;DHT22;63699;45.442;11.510;2022-10-20T10:46:09;20.50;83.60
75126;DHT22;63699;45.442;11.510;2022-10-20T11:12:58;20.50;82.80
75126;DHT22;63699;45.442;11.510;2022-10-20T11:15:38;20.50;83.30
75126;DHT22;63699;45.442;11.510;2022-10-20T11:24:13;20.50;82.70
75126;DHT22;63699;45.442;11.510;2022-10-20T11:26:16;20.50;83.20
75126;DHT22;63699;45.442;11.510;2022-10-20T11:28:46;20.50;83.10
75126;DHT22;63699;45.442;11.510;2022-10-20T11:31:32;20.50;82.40
75126;DHT22;63699;45.442;11.510;2022-10-20T11:34:17;20.50;82.50
75126;DHT22;63699;45.442;11.510;2022-10-20T11:36:49;20.50;83.00
75126;DHT22;63699;45.442;11.510;2022-10-20T11:39:24;20.50;83.00
75126;DHT22;63699;45.442;11.510;2022-10-20T11:41:51;20.50;83.00
75126;DHT22;63699;45.442;11.510;2022-10-20T11:44:26;20.50;82.80
75126;DHT22;63699;45.442;11.510;2022-10-20T11:47:05;20.50;82.60
75126;DHT22;63699;45.442;11.510;2022-10-20T11:49:32;20.50;81.70
75126;DHT22;63699;45.442;11.510;2022-10-20T11:52:39;20.50;82.30
75126;DHT22;63699;45.442;11.510;2022-10-20T11:55:52;20.40;82.80
75126;DHT22;63699;45.442;11.510;2022-10-20T12:12:10;20.40;82.80
75126;DHT22;63699;45.442;11.510;2022-10-20T12:14:48;20.40;82.80
75126;DHT22;63699;45.442;11.510;2022-10-20T12:22:48;20.40;82.30
75126;DHT22;63699;45.442;11.510;2022-10-20T12:30:57;20.40;82.80
75126;DHT22;63699;45.442;11.510;2022-10-20T12:38:48;20.40;81.80
75126;DHT22;63699;45.442;11.510;2022-10-20T12:41:25;20.40;82.40
75126;DHT22;63699;45.442;11.510;2022-10-20T12:43:53;20.40;82.40
75126;DHT22;63699;45.442;11.510;2022-10-20T12:46:26;20.50;82.50
75126;DHT22;63699;45.442;11.510;2022-10-20T12:48:55;20.40;82.40
75126;DHT22;63699;45.442;11.510;2022-10-20T12:51:50;20.40;82.40
75126;DHT22;63699;45.442;11.510;2022-10-20T12:56:50;20.50;82.50
75126;DHT22;63699;45.442;11.510;2022-10-20T13:21:02;20.50;82.10
75126;DHT22;63699;45.442;11.510;2022-10-20T13:23:53;20.50;82.10
75126;DHT22;63699;45.442;11.510;2022-10-20T13:28:48;20.40;81.90
75126;DHT22;63699;45.442;11.510;2022-10-20T13:42:26;20.20;77.80
75126;DHT22;63699;45.442;11.510;2022-10-20T13:51:27;20.20;79.70
75126;DHT22;63699;45.442;11.510;2022-10-20T13:54:04;20.20;79.40
75126;DHT22;63699;45.442;11.510;2022-10-20T13:56:37;20.20;78.20
75126;DHT22;63699;45.442;11.510;2022-10-20T13:59:05;20.10;78.80
75126;DHT22;63699;45.442;11.510;2022-10-20T14:01:48;20.10;78.90
75126;DHT22;63699;45.442;11.510;2022-10-20T14:04:35;20.10;80.00
75126;DHT22;63699;45.442;11.510;2022-10-20T14:09:28;20.10;78.90
